Nearby METAR Reports

KLNK - Lincoln, Nebraska, USA
Distance from station: WNW 8mi, 13km
Updated: Sun, 20-Jan-2019 8:54am CST
Overcast
Overcast
 Wind from SSE
Wind: SSE 15 mph , 24 km/h
Temperature: 12°F , -11°C
Wind Chill: -4°F , -20°C
Dew Point: 3°F , -16°C
Humidity: 67%
Barometer: 30.23 inHg , 1023.7 hPa
Clouds: Overcast
Visibility: 10 miles , 16 km
Cloud details: Overcast 4100 ft
2019/01/20 14:54 KLNK 201454Z 15013KT 10SM OVC041 M11/M16 A3023 RMK AO2 SLP262 T11111161 56009
KAHQ - Wahoo, Nebraska, USA
Distance from station: N 31mi, 49km
Updated: Sun, 20-Jan-2019 9:35am CST
Overcast
Overcast
 Wind from SE
Wind: SE 10 mph , 17 km/h
Temperature: 12°F , -11°C
Wind Chill: -1°F , -18°C
Dew Point: 5°F , -15°C
Humidity: 73%
Barometer: 30.24 inHg , 1024 hPa
Clouds: Overcast
Visibility: 10 miles , 16 km
Cloud details: Partly Cloudy 3100 ft
Mostly Cloudy 4000 ft
Overcast 6000 ft
2019/01/20 15:35 KAHQ 201535Z AUTO 13009KT 10SM SCT031 BKN040 OVC060 M11/M15 A3024 RMK AO2 T11151150
 
KBIE - Beatrice Municip, Nebraska, USA
Distance from station: S 36mi, 57km
Updated: Sun, 20-Jan-2019 9:35am CST
Clear
Clear
 Wind from SE
Wind: SE 10 mph , 17 km/h
Temperature: 14°F , -10°C
Wind Chill: 1°F , -17°C
Dew Point: 5°F , -15°C
Humidity: 67%
Barometer: 30.20 inHg , 1022.7 hPa
Clouds: Clear
Visibility: 10 miles , 16 km
2019/01/20 15:35 KBIE 201535Z AUTO 14009KT 10SM CLR M10/M15 A3020 RMK AO2 T11021146 PWINO
KMLE - Omaha/Millard, Nebraska, USA
Distance from station: NE 39mi, 63km
Updated: Sun, 20-Jan-2019 9:35am CST
Light snow, Overcast
Light snow, Overcast
 Wind from SE
Wind: SE 13 mph , 20 km/h
Temperature: 10°F , -12°C
Wind Chill: -5°F , -21°C
Dew Point: 3°F , -16°C
Humidity: 72%
Barometer: 30.27 inHg , 1025.1 hPa
Summary: Light Snow
Clouds: Overcast
Visibility: 4 miles , 6 km
Cloud details: Partly Cloudy 3400 ft
Mostly Cloudy 4400 ft
Overcast 5000 ft
2019/01/20 15:35 KMLE 201535Z AUTO 13011KT 4SM -SN SCT034 BKN044 OVC050 M12/M16 A3027 RMK AO2 T11171162
 
KPMV - Plattsmouth Muni, Nebraska, USA
Distance from station: ENE 39mi, 63km
Updated: Sun, 20-Jan-2019 9:35am CST
Overcast
Overcast
 Wind from ESE
Wind: ESE 14 mph , 22 km/h
Temperature: 9°F , -13°C
Wind Chill: -7°F , -22°C
Dew Point: 3°F , -16°C
Humidity: 78%
Barometer: 30.25 inHg , 1024.4 hPa
Clouds: Overcast
Visibility: 10 miles , 16 km
Cloud details: Mostly Cloudy 3500 ft
Mostly Cloudy 4300 ft
Overcast 6000 ft
2019/01/20 15:35 KPMV 201535Z AUTO 12012KT 10SM BKN035 BKN043 OVC060 M13/M16 A3025 RMK AO2 T11291161
KAFK - Nebraska City, Nebraska, USA
Distance from station: ESE 43mi, 69km
Updated: Sun, 20-Jan-2019 9:35am CST
Overcast
Overcast
 Wind from ESE
Wind: ESE 9 mph , 15 km/h
Temperature: 10°F , -12°C
Wind Chill: -3°F , -19°C
Dew Point: 1°F , -17°C
Humidity: 67%
Barometer: 30.28 inHg , 1025.4 hPa
Clouds: Overcast
Visibility: 10 miles , 16 km
Cloud details: Overcast 3400 ft
2019/01/20 15:35 KAFK 201535Z AUTO 11008KT 10SM OVC034 M12/M17 A3028 RMK AO2 T11221169
 
KOFF - Offutt Afb/Belle, Nebraska, USA
Distance from station: ENE 44mi, 70km
Updated: Sun, 20-Jan-2019 9:14am CST
Light snow, Partly cloudy
Light snow, Partly cloudy
 Wind from ESE
Wind: ESE 12 mph , 19 km/h
Temperature: 10°F , -12°C
Wind Chill: -5°F , -21°C
Dew Point: 7°F , -14°C
Humidity: 85%
Barometer: 30.27 inHg , 1025.1 hPa
Summary: Light Snow
Clouds: Partly Cloudy
Visibility: 10 miles , 16 km
Cloud details: Partly Cloudy 3700 ft
2019/01/20 15:14 KOFF 201514Z AUTO 11010KT 10SM -SN SCT037 M12/M14 A3027 RMK AO2 SNB14 PRESFR SLP277 $
KFET - Fremont Muni Arp, Nebraska, USA
Distance from station: N 46mi, 74km
Updated: Sun, 20-Jan-2019 9:35am CST
Light snow, Overcast
Light snow, Overcast
 Wind from ESE
Wind: ESE 12 mph , 19 km/h, Gust: 16 mph , 26 km/h
Temperature: 14°F , -10°C
Wind Chill: 0°F , -18°C
Dew Point: 7°F , -14°C
Humidity: 73%
Barometer: 30.25 inHg , 1024.4 hPa
Summary: Light Snow
Clouds: Overcast
Visibility: 1 3/4 miles , 2.8 km
Cloud details: Partly Cloudy 2200 ft
Mostly Cloudy 3000 ft
Overcast 3700 ft
2019/01/20 15:35 KFET 201535Z AUTO 12010G14KT 1 3/4SM -SN SCT022 BKN030 OVC037 M10/M14 A3025 RMK AO2 T11051145
 
KBTA - Blair Muni, Nebraska, USA
Distance from station: NNE 51mi, 82km
Updated: Sun, 20-Jan-2019 9:35am CST
Light snow, Overcast
Light snow, Overcast
 Wind from ESE
Wind: ESE 10 mph , 17 km/h
Temperature: 10°F , -12°C
Wind Chill: -4°F , -20°C
Dew Point: 5°F , -15°C
Humidity: 79%
Barometer: 30.24 inHg , 1024 hPa
Summary: Light Snow
Clouds: Overcast
Visibility: 10 miles , 16 km
Cloud details: Overcast 3300 ft
2019/01/20 15:35 KBTA 201535Z AUTO 12009KT 10SM -SN OVC033 M12/M15 A3024 RMK AO2 T11211154
KJYR - York, Nebraska, USA
Distance from station: W 52mi, 84km
Updated: Sun, 20-Jan-2019 9:35am CST
Overcast
Overcast
 
Temperature: 16°F , -9°C
Dew Point: 9°F , -13°C
Humidity: 73%
Barometer: 30.17 inHg , 1021.7 hPa
Clouds: Overcast
Visibility: 10 miles , 16 km
Cloud details: Overcast 4400 ft
2019/01/20 15:35 KJYR 201535Z AUTO 10SM OVC044 M09/M13 A3017 RMK AO2
 
KOMA - Omaha/Eppley, Nebraska, USA
Distance from station: NE 53mi, 85km
Updated: Sun, 20-Jan-2019 8:52am CST
Light snow, Overcast
Light snow, Overcast
 Wind from SE
Wind: SE 14 mph , 22 km/h
Temperature: 10°F , -12°C
Wind Chill: -6°F , -21°C
Dew Point: 1°F , -17°C
Humidity: 67%
Barometer: 30.30 inHg , 1026.1 hPa
Summary: Light Snow
Clouds: Overcast
Visibility: 10 miles , 16 km
Cloud details: Overcast 3800 ft
2019/01/20 14:52 KOMA 201452Z 13012KT 10SM -SN OVC038 M12/M17 A3030 RMK AO2 SNB49 SLP279 P0000 60000 T11221172 50010
KOLU - Columbus Muni, Nebraska, USA
Distance from station: NW 58mi, 93km
Updated: Sun, 20-Jan-2019 8:56am CST
Overcast
Overcast
 Wind from SE
Wind: SE 10 mph , 17 km/h
Temperature: 12°F , -11°C
Wind Chill: -1°F , -18°C
Dew Point: 7°F , -14°C
Humidity: 79%
Barometer: 30.20 inHg , 1022.7 hPa
Clouds: Overcast
Visibility: 10 miles , 16 km
Cloud details: Few Clouds 6000 ft
Partly Cloudy 7500 ft
Overcast 9000 ft
2019/01/20 14:56 KOLU 201456Z AUTO 14009KT 10SM FEW060 SCT075 OVC090 M11/M14 A3020 RMK AO2 SNE10 SLP259 P0000 60000 T11061139 53009 FZRANO